map of SUV home
SUV - Airport
Location
City:  Suva, Fiji
Name:Nausori International Airport
ICAO:NFNA
IATA:SUV

Details
Type:Airport (Aerodrome, Airfield)
Use:Public/Civil, International (customs port of entry)
Latitude:1802'36"S (-18.043266)
Longitude:17833'33"E (178.559228)
Datum:WGS 1984
Elevation:17 ft (5 m)
Variation:12.57E (WMM2015 magnetic declination)
0.04 annual change
Runways:1
Longest:6129 × 100 ft (1868 × 30.5 m), paved

Time
Time Zone:UTC+12 (DST+13)
Local Time:

Weather
METAR:NFNA 210800Z 31004KT 9999 -RA SCT015 BKN045 OVC110 25/25 Q1010
TAF:NFNA 210501Z 2106/2206 20007KT 9999 -SHRA SCT018 BKN045 PROB40
TEMPO 2106/2112 3000 TSRA BKN015 FEW017CB

Related Locations
Nearby:
Farthest:GABR: 12340 mi / 19859 km
Bourem [Bourem Airport], 7, ML

Find:

   beyond  
but within

Other Information
Maps:
NOTAMs:
Links:
Sources:

  
  • flag of Fiji
  

Sectional Chart

Flight Planning
at skyvector.com

Satellite Image

Google Maps Satellite view

 

Copyright © 2004-2019 Karl L. Swartz. All rights reserved.
The Great Circle Mapper name and logo are trademarks of the Great Circle Mapper.
All other trademarks mentioned herein belong to their respective owners.
Please see credits for attibutions and further copyright information.

  Follow gcmap on Facebook Follow gcmap on Twitter Follow gcmap on Google+ GCmap on LinkedIn

hCard Microformat

Geo Microformat